Rio Negro, Brazil
Current Conditions -  °F | °C
As of 11:00 PM on Saturday 20 Dec 2014 (Local Time) from SBCG Reporting Station
Clear Clear  
Wind Chill: 73°   Ceiling: Unl
Heat Index: 73°   Visibility: 6mi
Dew Point: 70°   Wind: 12mph
Humidity: 88%   Direction: 10°N
Pressure: 29.77"   Gusts: NA
Location:  19.45°S, 54.97°W
Report Text: SBCG 210200Z 01010KT CAVOK 23/21 Q1008
Loading
Personal Weather Stations






























Interactive Weather Map New forecast layout! Learn more

10-Day Weather Forecast

Advertisements
Track Severe Weather on mobile